Aérodrome :
LOGIN :

S'inscrire | Disclaimer

   EN    FR    IT 

 










Légende :    VFR   VFR Marginal   IFR   IFR Intensif   IFR Très Intensif
Visi : 
Plafond : 
>= 8 km
>= 3000ft
5 à 8 km
1000 à 3000 ft
1500m à 5 km
500 à 1000 ft
800 à 1500m
200 à 500 ft
< 800m
< 200 ft
Symboles :   Orages  Brouillard  Fortes neiges  Fortes précipitations  Vent > 20 kt
SIGMETs :   Divers  Orages  Givrage  Turbulence  Onde Orograph.  Cendres Volcan.






- Altitude de l'aérodrome : 16 ft
- Code IATA : SDR


LEXJ - Santander Cantabria

DERNIER METAR :
  • 241800Z 29008KT 260V320 4500 BR BKN012 10/09 Q1025

METARs EXPIRÉS :
  • 241730Z 30009KT 260V330 4000 BR SCT012 10/09 Q1024
  • 241700Z 31006KT 5000 BR NSC 11/09 Q1024
  • 241630Z 31006KT 260V330 6000 NSC 12/10 Q1024
  • 241600Z 02003KT 320V070 6000 FEW010 13/10 Q1024
  • 241530Z 01003KT 320V040 7000 FEW010 13/10 Q1024

TAF TAF LEXJ
Valide du 24 à 15h jusqu'au 25 à 15h UTC


241400Z 2415/2515 29008KT 8000 BKN015 TX12/2415Z TN07/2421Z
PROB40
TEMPO 2415/2420 3000 BR BKN009
TEMPO 2418/2504 3000 BR BKN005 BKN010
PROB40
TEMPO 2418/2503 1500 BCFG BKN002
PROB30
TEMPO 2418/2503 0350 FG VV001
TEMPO 2504/2509 3000 RA BKN009



MET'MAP, la Météo Aéronautique d'un coup d'oeil ! - Copyright ORBIFLY Décembre 2007 - Disclaimer

ORBIFLY MET'MAP TEAM :

Programmation & Développement : Alexandra Zaïnal
Sur une idée originale de : Baudouin d'Aumeries
Assistance à la programmation : Marc-Olivier Méhu
Soutien technique & logistique : Manuel Goepfert

Contact : metmap@orbifly.com




SOURCES & CREDITS :

   NOAA